sensor_id;sensor_type;location;lat;lon;timestamp;pressure;altitude;pressure_sealevel;temperature;humidity
46211;BME280;52144;48.040;-1.594;2023-05-10T00:01:51;101188.34;;;14.49;87.81
46211;BME280;52144;48.040;-1.594;2023-05-10T00:04:19;101190.44;;;14.43;88.06
46211;BME280;52144;48.040;-1.594;2023-05-10T00:06:48;101183.75;;;14.84;86.54
46211;BME280;52144;48.040;-1.594;2023-05-10T00:09:16;101183.16;;;14.45;88.56
46211;BME280;52144;48.040;-1.594;2023-05-10T00:11:44;101187.22;;;14.70;87.25
46211;BME280;52144;48.040;-1.594;2023-05-10T00:14:11;101183.13;;;13.96;89.08
46211;BME280;52144;48.040;-1.594;2023-05-10T00:16:39;101182.94;;;14.98;86.17
46211;BME280;52144;48.040;-1.594;2023-05-10T00:19:07;101183.28;;;14.92;85.82
46211;BME280;52144;48.040;-1.594;2023-05-10T00:21:35;101187.06;;;13.72;89.96
46211;BME280;52144;48.040;-1.594;2023-05-10T00:24:04;101188.69;;;14.42;90.06
46211;BME280;52144;48.040;-1.594;2023-05-10T00:26:32;101188.16;;;13.50;91.51
46211;BME280;52144;48.040;-1.594;2023-05-10T00:29:00;101179.50;;;13.45;92.99
46211;BME280;52144;48.040;-1.594;2023-05-10T00:31:28;101185.50;;;14.18;90.43
46211;BME280;52144;48.040;-1.594;2023-05-10T00:33:56;101182.63;;;14.55;88.25
46211;BME280;52144;48.040;-1.594;2023-05-10T00:36:23;101188.34;;;13.82;91.29
46211;BME280;52144;48.040;-1.594;2023-05-10T00:38:51;101179.19;;;13.86;92.95
46211;BME280;52144;48.040;-1.594;2023-05-10T00:41:20;101177.84;;;13.95;89.92
46211;BME280;52144;48.040;-1.594;2023-05-10T00:43:48;101179.41;;;13.47;93.26
46211;BME280;52144;48.040;-1.594;2023-05-10T00:46:16;101184.06;;;13.78;91.87
46211;BME280;52144;48.040;-1.594;2023-05-10T00:48:44;101189.88;;;13.51;91.88
46211;BME280;52144;48.040;-1.594;2023-05-10T00:51:13;101179.50;;;13.45;92.35
46211;BME280;52144;48.040;-1.594;2023-05-10T00:53:40;101183.91;;;13.46;91.83
46211;BME280;52144;48.040;-1.594;2023-05-10T00:56:08;101181.06;;;13.49;91.64
46211;BME280;52144;48.040;-1.594;2023-05-10T00:58:38;101190.63;;;13.72;90.47
46211;BME280;52144;48.040;-1.594;2023-05-10T01:01:06;101191.31;;;13.93;90.13
46211;BME280;52144;48.040;-1.594;2023-05-10T01:03:35;101188.63;;;13.93;90.17
46211;BME280;52144;48.040;-1.594;2023-05-10T01:06:04;101186.28;;;13.52;91.50
46211;BME280;52144;48.040;-1.594;2023-05-10T01:08:32;101191.47;;;13.73;90.41
46211;BME280;52144;48.040;-1.594;2023-05-10T01:11:00;101187.22;;;13.69;91.04
46211;BME280;52144;48.040;-1.594;2023-05-10T01:13:33;101192.78;;;14.50;88.28
46211;BME280;52144;48.040;-1.594;2023-05-10T01:16:03;101187.75;;;14.43;87.53
46211;BME280;52144;48.040;-1.594;2023-05-10T01:18:33;101187.06;;;14.07;89.39
46211;BME280;52144;48.040;-1.594;2023-05-10T01:21:10;101189.75;;;13.54;90.97
46211;BME280;52144;48.040;-1.594;2023-05-10T01:27:17;101187.56;;;13.80;90.46
46211;BME280;52144;48.040;-1.594;2023-05-10T01:29:53;101186.09;;;13.55;93.81
46211;BME280;52144;48.040;-1.594;2023-05-10T01:32:36;101187.53;;;13.45;94.16
46211;BME280;52144;48.040;-1.594;2023-05-10T01:35:10;101181.69;;;14.07;88.99
46211;BME280;52144;48.040;-1.594;2023-05-10T01:37:43;101185.03;;;14.28;87.40
46211;BME280;52144;48.040;-1.594;2023-05-10T01:40:18;101190.22;;;13.80;92.20
46211;BME280;52144;48.040;-1.594;2023-05-10T01:42:50;101184.97;;;14.12;89.71
46211;BME280;52144;48.040;-1.594;2023-05-10T01:45:24;101186.41;;;14.19;90.76
46211;BME280;52144;48.040;-1.594;2023-05-10T01:48:03;101185.78;;;13.61;90.97
46211;BME280;52144;48.040;-1.594;2023-05-10T01:50:35;101179.63;;;14.12;91.19
46211;BME280;52144;48.040;-1.594;2023-05-10T01:53:05;101188.31;;;13.99;90.90
46211;BME280;52144;48.040;-1.594;2023-05-10T01:55:35;101178.81;;;13.22;94.95
46211;BME280;52144;48.040;-1.594;2023-05-10T01:58:09;101187.00;;;13.56;91.98
46211;BME280;52144;48.040;-1.594;2023-05-10T02:00:40;101181.38;;;13.78;91.28
46211;BME280;52144;48.040;-1.594;2023-05-10T02:03:12;101183.19;;;13.77;91.56
46211;BME280;52144;48.040;-1.594;2023-05-10T02:05:43;101180.75;;;13.55;92.54
46211;BME280;52144;48.040;-1.594;2023-05-10T02:08:13;101187.03;;;13.37;94.77
46211;BME280;52144;48.040;-1.594;2023-05-10T02:10:42;101183.84;;;13.82;93.00
46211;BME280;52144;48.040;-1.594;2023-05-10T02:13:12;101189.03;;;13.33;93.11
46211;BME280;52144;48.040;-1.594;2023-05-10T02:15:42;101186.59;;;13.46;93.15
46211;BME280;52144;48.040;-1.594;2023-05-10T02:18:13;101182.19;;;13.80;92.24
46211;BME280;52144;48.040;-1.594;2023-05-10T02:20:42;101191.81;;;13.84;90.30
46211;BME280;52144;48.040;-1.594;2023-05-10T02:23:11;101201.34;;;13.72;92.32
46211;BME280;52144;48.040;-1.594;2023-05-10T02:25:39;101199.19;;;13.79;91.37
46211;BME280;52144;48.040;-1.594;2023-05-10T02:28:09;101207.06;;;13.64;93.50
46211;BME280;52144;48.040;-1.594;2023-05-10T02:30:38;101202.03;;;13.76;90.87
46211;BME280;52144;48.040;-1.594;2023-05-10T02:33:07;101205.88;;;14.05;89.88
46211;BME280;52144;48.040;-1.594;2023-05-10T02:35:37;101213.66;;;13.40;92.57
46211;BME280;52144;48.040;-1.594;2023-05-10T02:38:06;101213.34;;;13.63;93.77
46211;BME280;52144;48.040;-1.594;2023-05-10T02:40:35;101209.97;;;13.77;90.95
46211;BME280;52144;48.040;-1.594;2023-05-10T02:43:05;101210.63;;;13.82;90.36
46211;BME280;52144;48.040;-1.594;2023-05-10T02:45:35;101215.81;;;14.03;91.06
46211;BME280;52144;48.040;-1.594;2023-05-10T02:48:05;101211.34;;;13.86;89.44
46211;BME280;52144;48.040;-1.594;2023-05-10T02:50:33;101216.84;;;13.83;90.07
46211;BME280;52144;48.040;-1.594;2023-05-10T02:53:10;101218.41;;;13.87;90.78
46211;BME280;52144;48.040;-1.594;2023-05-10T02:55:40;101220.28;;;14.20;90.37
46211;BME280;52144;48.040;-1.594;2023-05-10T02:58:09;101231.09;;;14.01;88.06
46211;BME280;52144;48.040;-1.594;2023-05-10T03:00:37;101224.53;;;14.24;88.99
46211;BME280;52144;48.040;-1.594;2023-05-10T03:03:04;101220.91;;;14.08;89.30
46211;BME280;52144;48.040;-1.594;2023-05-10T03:05:33;101216.06;;;14.32;88.32
46211;BME280;52144;48.040;-1.594;2023-05-10T03:08:01;101223.84;;;14.03;87.70
46211;BME280;52144;48.040;-1.594;2023-05-10T03:10:33;101219.56;;;14.16;88.01
46211;BME280;52144;48.040;-1.594;2023-05-10T03:13:09;101219.88;;;14.10;86.75
46211;BME280;52144;48.040;-1.594;2023-05-10T03:15:47;101224.63;;;13.88;90.56
46211;BME280;52144;48.040;-1.594;2023-05-10T03:18:21;101223.94;;;13.67;87.43
46211;BME280;52144;48.040;-1.594;2023-05-10T03:20:51;101214.56;;;13.75;90.14
46211;BME280;52144;48.040;-1.594;2023-05-10T03:23:27;101219.19;;;13.72;89.34
46211;BME280;52144;48.040;-1.594;2023-05-10T03:25:57;101218.50;;;13.68;90.64
46211;BME280;52144;48.040;-1.594;2023-05-10T03:28:27;101220.38;;;13.83;90.86
46211;BME280;52144;48.040;-1.594;2023-05-10T03:30:56;101211.81;;;13.23;92.35
46211;BME280;52144;48.040;-1.594;2023-05-10T03:33:24;101210.78;;;13.79;92.01
46211;BME280;52144;48.040;-1.594;2023-05-10T03:35:51;101214.78;;;13.71;89.35
46211;BME280;52144;48.040;-1.594;2023-05-10T03:38:19;101217.56;;;13.33;91.52
46211;BME280;52144;48.040;-1.594;2023-05-10T03:40:47;101216.94;;;13.64;93.37
46211;BME280;52144;48.040;-1.594;2023-05-10T03:43:16;101212.75;;;13.58;90.92
46211;BME280;52144;48.040;-1.594;2023-05-10T03:45:44;101223.75;;;13.70;90.44
46211;BME280;52144;48.040;-1.594;2023-05-10T03:48:12;101215.28;;;13.79;91.69
46211;BME280;52144;48.040;-1.594;2023-05-10T03:50:40;101217.44;;;13.53;90.93
46211;BME280;52144;48.040;-1.594;2023-05-10T03:53:08;101224.41;;;12.83;96.09
46211;BME280;52144;48.040;-1.594;2023-05-10T03:55:35;101214.13;;;13.31;94.04
46211;BME280;52144;48.040;-1.594;2023-05-10T03:58:03;101211.88;;;13.58;93.38
46211;BME280;52144;48.040;-1.594;2023-05-10T04:00:32;101218.94;;;13.41;92.93
46211;BME280;52144;48.040;-1.594;2023-05-10T04:03:00;101222.38;;;13.07;94.88
46211;BME280;52144;48.040;-1.594;2023-05-10T04:05:28;101221.47;;;13.25;95.18
46211;BME280;52144;48.040;-1.594;2023-05-10T04:07:56;101214.97;;;13.12;94.81
46211;BME280;52144;48.040;-1.594;2023-05-10T04:10:24;101214.69;;;13.55;94.46
46211;BME280;52144;48.040;-1.594;2023-05-10T04:12:52;101228.81;;;13.93;92.19
46211;BME280;52144;48.040;-1.594;2023-05-10T04:15:19;101221.31;;;14.17;90.24
46211;BME280;52144;48.040;-1.594;2023-05-10T04:17:49;101220.91;;;14.25;88.93
46211;BME280;52144;48.040;-1.594;2023-05-10T04:20:17;101225.44;;;14.40;89.07
46211;BME280;52144;48.040;-1.594;2023-05-10T04:22:45;101220.78;;;14.11;90.84
46211;BME280;52144;48.040;-1.594;2023-05-10T04:25:13;101220.72;;;14.28;90.33
46211;BME280;52144;48.040;-1.594;2023-05-10T04:27:41;101226.13;;;14.11;91.80
46211;BME280;52144;48.040;-1.594;2023-05-10T04:30:09;101225.31;;;14.26;90.49
46211;BME280;52144;48.040;-1.594;2023-05-10T04:32:37;101227.63;;;14.50;89.79
46211;BME280;52144;48.040;-1.594;2023-05-10T04:35:07;101218.50;;;14.36;90.73
46211;BME280;52144;48.040;-1.594;2023-05-10T04:37:36;101224.97;;;14.32;89.14
46211;BME280;52144;48.040;-1.594;2023-05-10T04:40:05;101225.22;;;14.28;88.83
46211;BME280;52144;48.040;-1.594;2023-05-10T04:42:33;101224.09;;;14.49;90.72
46211;BME280;52144;48.040;-1.594;2023-05-10T04:45:01;101226.81;;;14.65;88.21
46211;BME280;52144;48.040;-1.594;2023-05-10T04:47:29;101231.31;;;14.64;89.55
46211;BME280;52144;48.040;-1.594;2023-05-10T04:49:56;101233.00;;;14.50;88.30
46211;BME280;52144;48.040;-1.594;2023-05-10T04:52:26;101229.41;;;14.33;89.86
46211;BME280;52144;48.040;-1.594;2023-05-10T04:54:54;101227.63;;;14.50;87.87
46211;BME280;52144;48.040;-1.594;2023-05-10T04:57:21;101234.88;;;14.48;90.11
46211;BME280;52144;48.040;-1.594;2023-05-10T04:59:49;101224.91;;;14.67;90.03
46211;BME280;52144;48.040;-1.594;2023-05-10T05:02:17;101233.16;;;14.47;88.60
46211;BME280;52144;48.040;-1.594;2023-05-10T05:04:45;101230.88;;;14.56;89.74
46211;BME280;52144;48.040;-1.594;2023-05-10T05:07:12;101236.88;;;14.61;89.13
46211;BME280;52144;48.040;-1.594;2023-05-10T05:09:41;101237.59;;;14.30;86.34
46211;BME280;52144;48.040;-1.594;2023-05-10T05:12:10;101239.81;;;14.22;86.03
46211;BME280;52144;48.040;-1.594;2023-05-10T05:14:40;101246.94;;;14.05;87.23
46211;BME280;52144;48.040;-1.594;2023-05-10T05:17:08;101242.06;;;13.96;88.07
46211;BME280;52144;48.040;-1.594;2023-05-10T05:19:36;101247.41;;;14.14;88.08
46211;BME280;52144;48.040;-1.594;2023-05-10T05:22:06;101258.34;;;13.92;89.90
46211;BME280;52144;48.040;-1.594;2023-05-10T05:24:35;101246.75;;;14.26;89.87
46211;BME280;52144;48.040;-1.594;2023-05-10T05:27:05;101253.34;;;14.54;88.63
46211;BME280;52144;48.040;-1.594;2023-05-10T05:29:33;101258.94;;;13.98;91.39
46211;BME280;52144;48.040;-1.594;2023-05-10T05:32:01;101258.19;;;14.30;92.50
46211;BME280;52144;48.040;-1.594;2023-05-10T05:34:29;101258.97;;;14.14;93.50
46211;BME280;52144;48.040;-1.594;2023-05-10T05:36:57;101263.34;;;14.68;91.82
46211;BME280;52144;48.040;-1.594;2023-05-10T05:39:25;101262.03;;;14.41;90.44
46211;BME280;52144;48.040;-1.594;2023-05-10T05:41:52;101270.09;;;14.24;93.47
46211;BME280;52144;48.040;-1.594;2023-05-10T05:44:21;101260.91;;;14.63;91.95
46211;BME280;52144;48.040;-1.594;2023-05-10T05:46:49;101263.22;;;14.36;93.00
46211;BME280;52144;48.040;-1.594;2023-05-10T05:49:17;101270.59;;;14.48;92.77
46211;BME280;52144;48.040;-1.594;2023-05-10T05:51:45;101280.00;;;15.06;91.42
46211;BME280;52144;48.040;-1.594;2023-05-10T05:54:12;101277.84;;;14.97;93.57
46211;BME280;52144;48.040;-1.594;2023-05-10T05:56:40;101278.72;;;15.29;88.53
46211;BME280;52144;48.040;-1.594;2023-05-10T05:59:08;101280.31;;;15.00;92.28
46211;BME280;52144;48.040;-1.594;2023-05-10T06:01:37;101282.16;;;15.15;92.61
46211;BME280;52144;48.040;-1.594;2023-05-10T06:04:05;101283.03;;;15.32;91.88
46211;BME280;52144;48.040;-1.594;2023-05-10T06:06:33;101288.94;;;14.73;94.62
46211;BME280;52144;48.040;-1.594;2023-05-10T06:09:01;101294.34;;;14.38;97.26
46211;BME280;52144;48.040;-1.594;2023-05-10T06:11:28;101295.44;;;15.18;93.16
46211;BME280;52144;48.040;-1.594;2023-05-10T06:13:58;101294.84;;;14.29;97.79
46211;BME280;52144;48.040;-1.594;2023-05-10T06:16:26;101286.44;;;14.70;96.69
46211;BME280;52144;48.040;-1.594;2023-05-10T06:18:55;101295.78;;;14.45;97.29
46211;BME280;52144;48.040;-1.594;2023-05-10T06:21:23;101291.19;;;14.48;98.26
46211;BME280;52144;48.040;-1.594;2023-05-10T06:23:50;101299.06;;;15.33;95.70
46211;BME280;52144;48.040;-1.594;2023-05-10T06:26:18;101293.50;;;15.52;93.52
46211;BME280;52144;48.040;-1.594;2023-05-10T06:28:47;101299.94;;;15.50;94.03
46211;BME280;52144;48.040;-1.594;2023-05-10T06:31:15;101294.63;;;15.64;92.45
46211;BME280;52144;48.040;-1.594;2023-05-10T06:33:43;101294.81;;;14.64;97.54
46211;BME280;52144;48.040;-1.594;2023-05-10T06:36:12;101297.06;;;15.21;95.58
46211;BME280;52144;48.040;-1.594;2023-05-10T06:38:40;101291.28;;;14.29;98.45
46211;BME280;52144;48.040;-1.594;2023-05-10T06:41:08;101300.56;;;14.90;96.81
46211;BME280;52144;48.040;-1.594;2023-05-10T06:43:36;101296.53;;;15.62;93.86
46211;BME280;52144;48.040;-1.594;2023-05-10T06:46:06;101286.22;;;15.54;92.16
46211;BME280;52144;48.040;-1.594;2023-05-10T06:48:34;101294.34;;;15.53;91.86
46211;BME280;52144;48.040;-1.594;2023-05-10T06:51:02;101291.16;;;15.78;92.37
46211;BME280;52144;48.040;-1.594;2023-05-10T06:53:31;101296.53;;;15.78;91.38
46211;BME280;52144;48.040;-1.594;2023-05-10T06:55:59;101290.38;;;15.44;94.37
46211;BME280;52144;48.040;-1.594;2023-05-10T06:58:26;101298.09;;;15.82;92.42
46211;BME280;52144;48.040;-1.594;2023-05-10T07:00:54;101297.00;;;15.22;95.17
46211;BME280;52144;48.040;-1.594;2023-05-10T07:03:22;101293.66;;;15.81;94.21
46211;BME280;52144;48.040;-1.594;2023-05-10T07:05:50;101295.75;;;15.44;91.90
46211;BME280;52144;48.040;-1.594;2023-05-10T07:08:17;101298.06;;;15.98;92.53
46211;BME280;52144;48.040;-1.594;2023-05-10T07:10:47;101299.44;;;16.19;90.28
46211;BME280;52144;48.040;-1.594;2023-05-10T07:13:14;101296.31;;;16.27;91.56
46211;BME280;52144;48.040;-1.594;2023-05-10T07:15:42;101292.97;;;16.52;89.97
46211;BME280;52144;48.040;-1.594;2023-05-10T07:18:11;101304.50;;;16.54;91.16
46211;BME280;52144;48.040;-1.594;2023-05-10T07:20:39;101302.69;;;15.80;90.51
46211;BME280;52144;48.040;-1.594;2023-05-10T07:23:07;101297.69;;;15.74;92.51
46211;BME280;52144;48.040;-1.594;2023-05-10T07:25:34;101308.56;;;15.87;92.03
46211;BME280;52144;48.040;-1.594;2023-05-10T07:28:04;101304.56;;;16.38;89.13
46211;BME280;52144;48.040;-1.594;2023-05-10T07:30:31;101298.84;;;16.00;90.43
46211;BME280;52144;48.040;-1.594;2023-05-10T07:32:59;101304.22;;;16.44;89.49
46211;BME280;52144;48.040;-1.594;2023-05-10T07:35:27;101304.13;;;16.60;88.82
46211;BME280;52144;48.040;-1.594;2023-05-10T07:37:55;101309.41;;;16.76;89.61
46211;BME280;52144;48.040;-1.594;2023-05-10T07:40:23;101299.47;;;16.34;88.79
46211;BME280;52144;48.040;-1.594;2023-05-10T07:42:51;101302.00;;;15.76;92.34
46211;BME280;52144;48.040;-1.594;2023-05-10T07:45:20;101297.38;;;15.62;93.86
46211;BME280;52144;48.040;-1.594;2023-05-10T07:47:48;101294.69;;;15.62;93.17
46211;BME280;52144;48.040;-1.594;2023-05-10T07:50:16;101297.38;;;16.24;89.29
46211;BME280;52144;48.040;-1.594;2023-05-10T07:52:44;101298.88;;;15.68;90.81
46211;BME280;52144;48.040;-1.594;2023-05-10T07:55:12;101297.78;;;16.02;91.20
46211;BME280;52144;48.040;-1.594;2023-05-10T07:57:41;101297.41;;;16.09;90.22
46211;BME280;52144;48.040;-1.594;2023-05-10T08:00:12;101294.06;;;15.89;92.00
46211;BME280;52144;48.040;-1.594;2023-05-10T08:02:41;101302.94;;;16.05;89.62
46211;BME280;52144;48.040;-1.594;2023-05-10T08:05:09;101301.25;;;16.04;89.53
46211;BME280;52144;48.040;-1.594;2023-05-10T08:07:37;101310.81;;;15.94;90.11
46211;BME280;52144;48.040;-1.594;2023-05-10T08:10:06;101310.78;;;16.69;87.22
46211;BME280;52144;48.040;-1.594;2023-05-10T08:12:35;101313.28;;;15.51;94.73
46211;BME280;52144;48.040;-1.594;2023-05-10T08:15:03;101315.91;;;15.03;100.00
46211;BME280;52144;48.040;-1.594;2023-05-10T08:17:31;101319.59;;;15.18;100.00
46211;BME280;52144;48.040;-1.594;2023-05-10T08:20:00;101318.81;;;15.48;100.00
46211;BME280;52144;48.040;-1.594;2023-05-10T08:22:28;101319.16;;;15.42;100.00
46211;BME280;52144;48.040;-1.594;2023-05-10T08:24:56;101312.56;;;15.63;98.88
46211;BME280;52144;48.040;-1.594;2023-05-10T08:27:24;101316.63;;;16.17;95.61
46211;BME280;52144;48.040;-1.594;2023-05-10T08:29:52;101312.59;;;15.79;95.60
46211;BME280;52144;48.040;-1.594;2023-05-10T08:32:19;101309.78;;;16.70;91.74
46211;BME280;52144;48.040;-1.594;2023-05-10T08:34:47;101306.06;;;16.14;93.70
46211;BME280;52144;48.040;-1.594;2023-05-10T08:37:16;101311.84;;;16.95;92.17
46211;BME280;52144;48.040;-1.594;2023-05-10T08:39:44;101318.50;;;17.04;89.69
46211;BME280;52144;48.040;-1.594;2023-05-10T08:42:16;101315.09;;;16.72;90.68
46211;BME280;52144;48.040;-1.594;2023-05-10T08:44:48;101314.53;;;16.95;90.34
46211;BME280;52144;48.040;-1.594;2023-05-10T08:47:18;101313.19;;;16.15;91.24
46211;BME280;52144;48.040;-1.594;2023-05-10T08:49:47;101316.94;;;17.00;88.60
46211;BME280;52144;48.040;-1.594;2023-05-10T08:52:17;101316.72;;;16.60;88.01
46211;BME280;52144;48.040;-1.594;2023-05-10T08:54:46;101322.09;;;17.32;85.59
46211;BME280;52144;48.040;-1.594;2023-05-10T08:57:14;101314.41;;;17.67;84.90
46211;BME280;52144;48.040;-1.594;2023-05-10T08:59:42;101313.31;;;17.84;83.02
46211;BME280;52144;48.040;-1.594;2023-05-10T09:02:11;101312.63;;;17.53;84.80
46211;BME280;52144;48.040;-1.594;2023-05-10T09:04:44;101313.44;;;18.48;84.00
46211;BME280;52144;48.040;-1.594;2023-05-10T09:07:12;101311.81;;;17.93;81.14
46211;BME280;52144;48.040;-1.594;2023-05-10T09:09:41;101306.25;;;18.09;80.41
46211;BME280;52144;48.040;-1.594;2023-05-10T09:12:09;101304.31;;;18.11;81.71
46211;BME280;52144;48.040;-1.594;2023-05-10T09:14:38;101311.88;;;18.06;80.17
46211;BME280;52144;48.040;-1.594;2023-05-10T09:17:06;101305.28;;;17.55;82.63
46211;BME280;52144;48.040;-1.594;2023-05-10T09:19:34;101304.69;;;18.44;81.42
46211;BME280;52144;48.040;-1.594;2023-05-10T09:22:02;101303.63;;;17.94;81.49
46211;BME280;52144;48.040;-1.594;2023-05-10T09:24:30;101308.00;;;17.55;83.10
46211;BME280;52144;48.040;-1.594;2023-05-10T09:26:59;101317.53;;;18.54;80.62
46211;BME280;52144;48.040;-1.594;2023-05-10T09:29:39;101317.41;;;17.07;84.34
46211;BME280;52144;48.040;-1.594;2023-05-10T09:32:07;101323.81;;;17.33;85.78
46211;BME280;52144;48.040;-1.594;2023-05-10T09:34:35;101309.44;;;17.88;84.28
46211;BME280;52144;48.040;-1.594;2023-05-10T09:37:06;101317.41;;;17.07;86.62
46211;BME280;52144;48.040;-1.594;2023-05-10T09:39:35;101319.66;;;16.86;87.64
46211;BME280;52144;48.040;-1.594;2023-05-10T09:42:07;101327.81;;;17.54;86.82
46211;BME280;52144;48.040;-1.594;2023-05-10T09:44:35;101321.13;;;18.01;88.20
46211;BME280;52144;48.040;-1.594;2023-05-10T09:47:04;101324.47;;;18.05;87.31
46211;BME280;52144;48.040;-1.594;2023-05-10T09:49:32;101333.22;;;18.09;88.45
46211;BME280;52144;48.040;-1.594;2023-05-10T09:52:01;101318.56;;;18.13;88.66
46211;BME280;52144;48.040;-1.594;2023-05-10T09:54:30;101322.41;;;18.49;88.84
46211;BME280;52144;48.040;-1.594;2023-05-10T09:56:58;101320.97;;;18.56;88.22
46211;BME280;52144;48.040;-1.594;2023-05-10T09:59:28;101322.44;;;18.21;86.65
46211;BME280;52144;48.040;-1.594;2023-05-10T10:01:57;101321.22;;;18.40;87.05
46211;BME280;52144;48.040;-1.594;2023-05-10T10:04:26;101313.31;;;18.24;88.15
46211;BME280;52144;48.040;-1.594;2023-05-10T10:07:01;101317.63;;;18.39;87.04
46211;BME280;52144;48.040;-1.594;2023-05-10T10:09:30;101317.19;;;18.20;90.02
46211;BME280;52144;48.040;-1.594;2023-05-10T10:11:59;101313.22;;;17.71;93.65
46211;BME280;52144;48.040;-1.594;2023-05-10T10:14:28;101321.41;;;17.97;91.03
46211;BME280;52144;48.040;-1.594;2023-05-10T10:16:56;101316.66;;;18.66;90.81
46211;BME280;52144;48.040;-1.594;2023-05-10T10:19:34;101305.13;;;18.90;88.85
46211;BME280;52144;48.040;-1.594;2023-05-10T10:22:03;101298.09;;;19.00;88.26
46211;BME280;52144;48.040;-1.594;2023-05-10T10:24:31;101303.69;;;18.97;83.97
46211;BME280;52144;48.040;-1.594;2023-05-10T10:27:07;101293.66;;;18.99;85.76
46211;BME280;52144;48.040;-1.594;2023-05-10T10:29:42;101295.66;;;19.21;85.78
46211;BME280;52144;48.040;-1.594;2023-05-10T10:32:25;101290.69;;;19.28;85.88
46211;BME280;52144;48.040;-1.594;2023-05-10T10:34:55;101299.75;;;18.90;83.49
46211;BME280;52144;48.040;-1.594;2023-05-10T10:37:24;101299.81;;;19.01;84.71
46211;BME280;52144;48.040;-1.594;2023-05-10T10:40:23;101292.69;;;17.29;92.09
46211;BME280;52144;48.040;-1.594;2023-05-10T10:42:51;101299.94;;;17.41;90.46
46211;BME280;52144;48.040;-1.594;2023-05-10T10:45:22;101307.94;;;17.42;91.34
46211;BME280;52144;48.040;-1.594;2023-05-10T10:48:00;101308.47;;;17.20;94.62
46211;BME280;52144;48.040;-1.594;2023-05-10T10:50:46;101306.38;;;16.97;98.30
46211;BME280;52144;48.040;-1.594;2023-05-10T10:53:14;101297.66;;;17.35;97.73
46211;BME280;52144;48.040;-1.594;2023-05-10T10:55:46;101300.69;;;17.84;94.48
46211;BME280;52144;48.040;-1.594;2023-05-10T10:58:29;101293.53;;;17.56;93.16
46211;BME280;52144;48.040;-1.594;2023-05-10T11:01:13;101302.84;;;18.32;96.59
46211;BME280;52144;48.040;-1.594;2023-05-10T11:06:44;101279.75;;;19.29;92.47
46211;BME280;52144;48.040;-1.594;2023-05-10T11:09:12;101281.94;;;19.85;91.35
46211;BME280;52144;48.040;-1.594;2023-05-10T11:11:51;101281.41;;;20.73;91.87
46211;BME280;52144;48.040;-1.594;2023-05-10T11:14:21;101277.84;;;19.18;88.17
46211;BME280;52144;48.040;-1.594;2023-05-10T11:16:51;101271.63;;;20.37;87.82
46211;BME280;52144;48.040;-1.594;2023-05-10T11:19:19;101266.94;;;19.81;88.09
46211;BME280;52144;48.040;-1.594;2023-05-10T11:21:48;101266.94;;;19.81;87.13
46211;BME280;52144;48.040;-1.594;2023-05-10T11:24:18;101269.34;;;19.60;88.61
46211;BME280;52144;48.040;-1.594;2023-05-10T11:26:49;101264.94;;;19.35;90.12
46211;BME280;52144;48.040;-1.594;2023-05-10T11:29:17;101272.59;;;19.04;92.22
46211;BME280;52144;48.040;-1.594;2023-05-10T11:31:47;101280.94;;;18.37;91.92
46211;BME280;52144;48.040;-1.594;2023-05-10T11:34:24;101284.88;;;17.38;99.34
46211;BME280;52144;48.040;-1.594;2023-05-10T11:36:53;101288.09;;;17.43;99.08
46211;BME280;52144;48.040;-1.594;2023-05-10T11:39:25;101304.75;;;17.36;98.96
46211;BME280;52144;48.040;-1.594;2023-05-10T11:41:54;101300.97;;;17.53;100.00
46211;BME280;52144;48.040;-1.594;2023-05-10T11:44:22;101299.38;;;16.35;97.00
46211;BME280;52144;48.040;-1.594;2023-05-10T11:46:50;101297.13;;;15.83;98.69
46211;BME280;52144;48.040;-1.594;2023-05-10T11:49:17;101308.25;;;15.29;100.00
46211;BME280;52144;48.040;-1.594;2023-05-10T11:51:47;101299.66;;;15.54;100.00
46211;BME280;52144;48.040;-1.594;2023-05-10T11:54:14;101301.63;;;15.82;100.00
46211;BME280;52144;48.040;-1.594;2023-05-10T11:56:42;101299.44;;;16.19;100.00
46211;BME280;52144;48.040;-1.594;2023-05-10T11:59:14;101291.84;;;16.12;100.00
46211;BME280;52144;48.040;-1.594;2023-05-10T12:01:42;101296.53;;;16.53;100.00
46211;BME280;52144;48.040;-1.594;2023-05-10T12:04:09;101294.81;;;16.66;100.00
46211;BME280;52144;48.040;-1.594;2023-05-10T12:06:40;101291.28;;;17.36;100.00
46211;BME280;52144;48.040;-1.594;2023-05-10T12:09:09;101292.78;;;17.81;96.77
46211;BME280;52144;48.040;-1.594;2023-05-10T12:11:38;101286.03;;;18.54;93.09
46211;BME280;52144;48.040;-1.594;2023-05-10T12:14:09;101291.03;;;19.47;93.60
46211;BME280;52144;48.040;-1.594;2023-05-10T12:16:37;101292.22;;;19.80;88.49
46211;BME280;52144;48.040;-1.594;2023-05-10T12:19:05;101298.66;;;19.05;85.61
46211;BME280;52144;48.040;-1.594;2023-05-10T12:21:33;101294.09;;;18.16;93.46
46211;BME280;52144;48.040;-1.594;2023-05-10T12:24:03;101301.75;;;18.48;95.30
46211;BME280;52144;48.040;-1.594;2023-05-10T12:26:32;101296.78;;;18.41;95.96
46211;BME280;52144;48.040;-1.594;2023-05-10T12:29:14;101299.63;;;18.65;98.44
46211;BME280;52144;48.040;-1.594;2023-05-10T12:31:50;101286.44;;;18.35;96.17
46211;BME280;52144;48.040;-1.594;2023-05-10T12:34:25;101288.16;;;18.49;95.09
46211;BME280;52144;48.040;-1.594;2023-05-10T12:36:53;101288.13;;;18.23;95.70
46211;BME280;52144;48.040;-1.594;2023-05-10T12:39:21;101288.91;;;18.64;95.95
46211;BME280;52144;48.040;-1.594;2023-05-10T12:41:50;101297.63;;;18.03;96.42
46211;BME280;52144;48.040;-1.594;2023-05-10T12:44:18;101305.44;;;17.67;97.44
46211;BME280;52144;48.040;-1.594;2023-05-10T12:46:46;101301.19;;;16.94;100.00
46211;BME280;52144;48.040;-1.594;2023-05-10T12:49:14;101309.22;;;16.65;100.00
46211;BME280;52144;48.040;-1.594;2023-05-10T12:51:41;101306.19;;;17.00;100.00
46211;BME280;52144;48.040;-1.594;2023-05-10T12:54:09;101300.41;;;16.77;100.00
46211;BME280;52144;48.040;-1.594;2023-05-10T12:56:37;101296.94;;;16.75;100.00
46211;BME280;52144;48.040;-1.594;2023-05-10T12:59:06;101291.97;;;16.98;100.00